sensor_id;sensor_type;location;lat;lon;timestamp;P1;durP1;ratioP1;P2;durP2;ratioP2
59193;SDS011;44967;48.598;15.650;2023-03-23T00:01:54;3.28;;;2.28;;
59193;SDS011;44967;48.598;15.650;2023-03-23T00:04:20;3.55;;;2.03;;
59193;SDS011;44967;48.598;15.650;2023-03-23T00:06:46;3.10;;;2.13;;
59193;SDS011;44967;48.598;15.650;2023-03-23T00:09:13;2.33;;;1.90;;
59193;SDS011;44967;48.598;15.650;2023-03-23T00:11:40;4.30;;;2.63;;
59193;SDS011;44967;48.598;15.650;2023-03-23T00:14:08;3.33;;;2.33;;
59193;SDS011;44967;48.598;15.650;2023-03-23T00:16:38;3.13;;;2.47;;
59193;SDS011;44967;48.598;15.650;2023-03-23T00:19:09;4.97;;;2.25;;
59193;SDS011;44967;48.598;15.650;2023-03-23T00:21:38;2.42;;;2.22;;
59193;SDS011;44967;48.598;15.650;2023-03-23T00:26:35;5.68;;;2.10;;
59193;SDS011;44967;48.598;15.650;2023-03-23T00:31:42;5.07;;;2.22;;
59193;SDS011;44967;48.598;15.650;2023-03-23T00:34:17;3.30;;;2.45;;
59193;SDS011;44967;48.598;15.650;2023-03-23T00:36:48;2.17;;;1.98;;
59193;SDS011;44967;48.598;15.650;2023-03-23T00:39:16;3.10;;;2.58;;
59193;SDS011;44967;48.598;15.650;2023-03-23T00:41:43;3.65;;;2.47;;
59193;SDS011;44967;48.598;15.650;2023-03-23T00:44:09;2.63;;;2.25;;
59193;SDS011;44967;48.598;15.650;2023-03-23T00:46:42;3.50;;;2.20;;
59193;SDS011;44967;48.598;15.650;2023-03-23T00:49:14;4.35;;;2.20;;
59193;SDS011;44967;48.598;15.650;2023-03-23T00:51:45;2.30;;;1.65;;
59193;SDS011;44967;48.598;15.650;2023-03-23T00:54:11;3.55;;;2.00;;
59193;SDS011;44967;48.598;15.650;2023-03-23T00:56:37;2.58;;;2.25;;
59193;SDS011;44967;48.598;15.650;2023-03-23T00:59:06;2.28;;;2.08;;
59193;SDS011;44967;48.598;15.650;2023-03-23T01:01:33;2.20;;;2.00;;
59193;SDS011;44967;48.598;15.650;2023-03-23T01:03:59;2.20;;;2.00;;
59193;SDS011;44967;48.598;15.650;2023-03-23T01:06:27;2.45;;;1.90;;
59193;SDS011;44967;48.598;15.650;2023-03-23T01:08:53;2.13;;;1.73;;
59193;SDS011;44967;48.598;15.650;2023-03-23T01:11:19;2.72;;;2.30;;
59193;SDS011;44967;48.598;15.650;2023-03-23T01:13:45;2.50;;;2.08;;
59193;SDS011;44967;48.598;15.650;2023-03-23T01:16:12;2.00;;;1.80;;
59193;SDS011;44967;48.598;15.650;2023-03-23T01:18:38;3.05;;;1.85;;
59193;SDS011;44967;48.598;15.650;2023-03-23T01:21:08;2.28;;;2.08;;
59193;SDS011;44967;48.598;15.650;2023-03-23T01:23:37;2.88;;;2.20;;
59193;SDS011;44967;48.598;15.650;2023-03-23T01:26:07;3.72;;;2.47;;
59193;SDS011;44967;48.598;15.650;2023-03-23T01:28:43;3.03;;;2.15;;
59193;SDS011;44967;48.598;15.650;2023-03-23T01:31:13;2.75;;;1.98;;
59193;SDS011;44967;48.598;15.650;2023-03-23T01:33:42;2.35;;;2.15;;
59193;SDS011;44967;48.598;15.650;2023-03-23T01:36:12;3.65;;;2.10;;
59193;SDS011;44967;48.598;15.650;2023-03-23T01:38:41;2.33;;;2.03;;
59193;SDS011;44967;48.598;15.650;2023-03-23T01:41:08;2.17;;;1.95;;
59193;SDS011;44967;48.598;15.650;2023-03-23T01:43:34;2.22;;;2.00;;
59193;SDS011;44967;48.598;15.650;2023-03-23T01:46:00;3.22;;;1.83;;
59193;SDS011;44967;48.598;15.650;2023-03-23T01:48:29;2.95;;;2.28;;
59193;SDS011;44967;48.598;15.650;2023-03-23T01:51:02;2.60;;;2.03;;
59193;SDS011;44967;48.598;15.650;2023-03-23T01:53:42;3.75;;;2.15;;
59193;SDS011;44967;48.598;15.650;2023-03-23T01:56:12;3.90;;;1.98;;
59193;SDS011;44967;48.598;15.650;2023-03-23T01:58:40;2.00;;;1.80;;
59193;SDS011;44967;48.598;15.650;2023-03-23T02:01:09;3.10;;;2.10;;
59193;SDS011;44967;48.598;15.650;2023-03-23T02:03:37;2.28;;;1.73;;
59193;SDS011;44967;48.598;15.650;2023-03-23T02:06:07;3.63;;;2.25;;
59193;SDS011;44967;48.598;15.650;2023-03-23T02:08:33;2.55;;;2.15;;
59193;SDS011;44967;48.598;15.650;2023-03-23T02:10:59;3.47;;;1.90;;
59193;SDS011;44967;48.598;15.650;2023-03-23T02:13:26;3.70;;;1.90;;
59193;SDS011;44967;48.598;15.650;2023-03-23T02:30:01;4.45;;;2.25;;
59193;SDS011;44967;48.598;15.650;2023-03-23T02:38:02;2.50;;;1.80;;
59193;SDS011;44967;48.598;15.650;2023-03-23T02:40:36;3.78;;;1.90;;
59193;SDS011;44967;48.598;15.650;2023-03-23T02:43:09;2.38;;;1.60;;
59193;SDS011;44967;48.598;15.650;2023-03-23T02:45:39;2.17;;;1.65;;
59193;SDS011;44967;48.598;15.650;2023-03-23T02:48:07;2.30;;;1.73;;
59193;SDS011;44967;48.598;15.650;2023-03-23T02:50:35;2.22;;;1.35;;
59193;SDS011;44967;48.598;15.650;2023-03-23T02:53:04;3.00;;;1.40;;
59193;SDS011;44967;48.598;15.650;2023-03-23T02:55:34;2.83;;;2.03;;
59193;SDS011;44967;48.598;15.650;2023-03-23T02:58:08;2.10;;;1.63;;
59193;SDS011;44967;48.598;15.650;2023-03-23T03:00:34;3.00;;;1.85;;
59193;SDS011;44967;48.598;15.650;2023-03-23T03:03:01;1.77;;;1.60;;
59193;SDS011;44967;48.598;15.650;2023-03-23T03:08:45;2.70;;;2.28;;
59193;SDS011;44967;48.598;15.650;2023-03-23T03:11:18;2.45;;;1.88;;
59193;SDS011;44967;48.598;15.650;2023-03-23T03:19:07;1.60;;;1.50;;
59193;SDS011;44967;48.598;15.650;2023-03-23T03:21:35;2.33;;;1.98;;
59193;SDS011;44967;48.598;15.650;2023-03-23T03:24:03;1.90;;;1.70;;
59193;SDS011;44967;48.598;15.650;2023-03-23T03:26:32;3.28;;;1.83;;
59193;SDS011;44967;48.598;15.650;2023-03-23T03:28:59;2.08;;;1.88;;
59193;SDS011;44967;48.598;15.650;2023-03-23T03:31:30;3.88;;;2.72;;
59193;SDS011;44967;48.598;15.650;2023-03-23T03:34:01;2.72;;;1.90;;
59193;SDS011;44967;48.598;15.650;2023-03-23T03:36:27;2.85;;;1.75;;
59193;SDS011;44967;48.598;15.650;2023-03-23T03:39:03;4.93;;;2.55;;
59193;SDS011;44967;48.598;15.650;2023-03-23T03:41:33;3.03;;;2.20;;
59193;SDS011;44967;48.598;15.650;2023-03-23T03:44:01;1.98;;;1.52;;
59193;SDS011;44967;48.598;15.650;2023-03-23T03:46:27;2.42;;;1.65;;
59193;SDS011;44967;48.598;15.650;2023-03-23T03:48:55;3.15;;;2.00;;
59193;SDS011;44967;48.598;15.650;2023-03-23T03:51:25;2.30;;;1.90;;
59193;SDS011;44967;48.598;15.650;2023-03-23T03:53:52;2.38;;;1.98;;
59193;SDS011;44967;48.598;15.650;2023-03-23T03:56:26;2.78;;;2.10;;
59193;SDS011;44967;48.598;15.650;2023-03-23T03:58:52;2.53;;;2.10;;
59193;SDS011;44967;48.598;15.650;2023-03-23T04:01:19;3.17;;;1.98;;
59193;SDS011;44967;48.598;15.650;2023-03-23T04:03:50;5.13;;;2.35;;
59193;SDS011;44967;48.598;15.650;2023-03-23T04:06:16;2.53;;;1.90;;
59193;SDS011;44967;48.598;15.650;2023-03-23T04:08:43;2.78;;;2.42;;
59193;SDS011;44967;48.598;15.650;2023-03-23T04:11:11;2.72;;;2.33;;
59193;SDS011;44967;48.598;15.650;2023-03-23T04:13:39;3.03;;;2.28;;
59193;SDS011;44967;48.598;15.650;2023-03-23T04:16:04;2.42;;;1.95;;
59193;SDS011;44967;48.598;15.650;2023-03-23T04:18:31;5.13;;;2.22;;
59193;SDS011;44967;48.598;15.650;2023-03-23T04:20:59;3.05;;;2.15;;
59193;SDS011;44967;48.598;15.650;2023-03-23T04:23:26;3.35;;;2.10;;
59193;SDS011;44967;48.598;15.650;2023-03-23T04:25:55;3.95;;;1.80;;
59193;SDS011;44967;48.598;15.650;2023-03-23T04:28:24;3.25;;;2.42;;
59193;SDS011;44967;48.598;15.650;2023-03-23T04:30:51;2.78;;;2.33;;
59193;SDS011;44967;48.598;15.650;2023-03-23T04:33:23;2.33;;;2.00;;
59193;SDS011;44967;48.598;15.650;2023-03-23T04:35:51;4.20;;;2.03;;
59193;SDS011;44967;48.598;15.650;2023-03-23T04:38:19;3.78;;;2.10;;
59193;SDS011;44967;48.598;15.650;2023-03-23T04:40:47;2.45;;;2.00;;
59193;SDS011;44967;48.598;15.650;2023-03-23T04:43:17;2.88;;;2.17;;
59193;SDS011;44967;48.598;15.650;2023-03-23T04:45:47;3.65;;;2.05;;
59193;SDS011;44967;48.598;15.650;2023-03-23T04:48:17;2.72;;;1.90;;
59193;SDS011;44967;48.598;15.650;2023-03-23T04:50:45;3.30;;;2.20;;
59193;SDS011;44967;48.598;15.650;2023-03-23T04:53:13;2.72;;;2.20;;
59193;SDS011;44967;48.598;15.650;2023-03-23T04:55:39;4.43;;;2.50;;
59193;SDS011;44967;48.598;15.650;2023-03-23T04:58:06;5.30;;;3.00;;
59193;SDS011;44967;48.598;15.650;2023-03-23T05:00:34;5.95;;;2.83;;
59193;SDS011;44967;48.598;15.650;2023-03-23T05:03:00;3.03;;;2.30;;
59193;SDS011;44967;48.598;15.650;2023-03-23T05:05:26;3.13;;;2.53;;
59193;SDS011;44967;48.598;15.650;2023-03-23T05:07:54;3.45;;;2.60;;
59193;SDS011;44967;48.598;15.650;2023-03-23T05:10:21;3.28;;;2.22;;
59193;SDS011;44967;48.598;15.650;2023-03-23T05:12:47;4.20;;;2.53;;
59193;SDS011;44967;48.598;15.650;2023-03-23T05:15:14;3.80;;;2.40;;
59193;SDS011;44967;48.598;15.650;2023-03-23T05:17:41;3.17;;;2.22;;
59193;SDS011;44967;48.598;15.650;2023-03-23T05:20:09;4.13;;;2.03;;
59193;SDS011;44967;48.598;15.650;2023-03-23T05:22:38;4.40;;;2.70;;
59193;SDS011;44967;48.598;15.650;2023-03-23T05:25:04;3.50;;;2.17;;
59193;SDS011;44967;48.598;15.650;2023-03-23T05:27:34;4.95;;;2.90;;
59193;SDS011;44967;48.598;15.650;2023-03-23T05:30:00;3.33;;;2.65;;
59193;SDS011;44967;48.598;15.650;2023-03-23T05:32:26;3.83;;;2.30;;
59193;SDS011;44967;48.598;15.650;2023-03-23T05:34:55;3.30;;;2.10;;
59193;SDS011;44967;48.598;15.650;2023-03-23T05:37:21;5.07;;;2.80;;
59193;SDS011;44967;48.598;15.650;2023-03-23T05:39:48;4.38;;;2.55;;
59193;SDS011;44967;48.598;15.650;2023-03-23T05:42:14;3.47;;;2.25;;
59193;SDS011;44967;48.598;15.650;2023-03-23T05:44:39;4.18;;;2.65;;
59193;SDS011;44967;48.598;15.650;2023-03-23T05:47:05;3.63;;;2.28;;
59193;SDS011;44967;48.598;15.650;2023-03-23T05:49:31;3.30;;;2.55;;
59193;SDS011;44967;48.598;15.650;2023-03-23T05:51:56;3.47;;;2.45;;
59193;SDS011;44967;48.598;15.650;2023-03-23T05:54:22;3.47;;;2.55;;
59193;SDS011;44967;48.598;15.650;2023-03-23T05:56:48;3.15;;;2.10;;
59193;SDS011;44967;48.598;15.650;2023-03-23T05:59:14;4.57;;;2.13;;
59193;SDS011;44967;48.598;15.650;2023-03-23T06:01:40;2.75;;;2.30;;
59193;SDS011;44967;48.598;15.650;2023-03-23T06:04:06;5.43;;;2.60;;
59193;SDS011;44967;48.598;15.650;2023-03-23T06:06:32;3.50;;;2.35;;
59193;SDS011;44967;48.598;15.650;2023-03-23T06:08:58;6.18;;;2.50;;
59193;SDS011;44967;48.598;15.650;2023-03-23T06:11:24;3.65;;;2.38;;
59193;SDS011;44967;48.598;15.650;2023-03-23T06:13:51;2.55;;;2.00;;
59193;SDS011;44967;48.598;15.650;2023-03-23T06:16:17;4.32;;;2.85;;
59193;SDS011;44967;48.598;15.650;2023-03-23T06:18:44;4.35;;;2.30;;
59193;SDS011;44967;48.598;15.650;2023-03-23T06:21:10;4.05;;;2.38;;
59193;SDS011;44967;48.598;15.650;2023-03-23T06:23:37;6.47;;;2.75;;
59193;SDS011;44967;48.598;15.650;2023-03-23T06:26:04;9.65;;;2.90;;
59193;SDS011;44967;48.598;15.650;2023-03-23T06:28:32;3.55;;;2.58;;
59193;SDS011;44967;48.598;15.650;2023-03-23T06:31:02;4.13;;;2.90;;
59193;SDS011;44967;48.598;15.650;2023-03-23T06:33:35;4.93;;;2.80;;
59193;SDS011;44967;48.598;15.650;2023-03-23T06:36:01;3.53;;;3.15;;
59193;SDS011;44967;48.598;15.650;2023-03-23T06:38:27;5.05;;;2.75;;
59193;SDS011;44967;48.598;15.650;2023-03-23T06:40:53;6.78;;;2.90;;
59193;SDS011;44967;48.598;15.650;2023-03-23T06:43:20;9.02;;;3.40;;
59193;SDS011;44967;48.598;15.650;2023-03-23T06:45:45;6.65;;;2.80;;
59193;SDS011;44967;48.598;15.650;2023-03-23T06:48:11;6.60;;;3.15;;
59193;SDS011;44967;48.598;15.650;2023-03-23T06:50:37;4.90;;;2.92;;
59193;SDS011;44967;48.598;15.650;2023-03-23T06:53:03;8.10;;;3.40;;
59193;SDS011;44967;48.598;15.650;2023-03-23T06:55:29;5.82;;;3.08;;
59193;SDS011;44967;48.598;15.650;2023-03-23T06:57:54;10.02;;;3.83;;
59193;SDS011;44967;48.598;15.650;2023-03-23T07:00:20;5.22;;;2.83;;
59193;SDS011;44967;48.598;15.650;2023-03-23T07:02:46;5.80;;;3.08;;
59193;SDS011;44967;48.598;15.650;2023-03-23T07:05:12;7.90;;;3.97;;
59193;SDS011;44967;48.598;15.650;2023-03-23T07:07:39;6.13;;;3.50;;
59193;SDS011;44967;48.598;15.650;2023-03-23T07:10:07;6.13;;;3.45;;
59193;SDS011;44967;48.598;15.650;2023-03-23T07:12:34;4.65;;;3.50;;
59193;SDS011;44967;48.598;15.650;2023-03-23T07:15:04;5.00;;;3.10;;
59193;SDS011;44967;48.598;15.650;2023-03-23T07:17:30;12.90;;;7.70;;
59193;SDS011;44967;48.598;15.650;2023-03-23T07:19:56;4.53;;;3.92;;
59193;SDS011;44967;48.598;15.650;2023-03-23T07:22:22;13.30;;;5.30;;
59193;SDS011;44967;48.598;15.650;2023-03-23T07:24:47;6.88;;;3.90;;
59193;SDS011;44967;48.598;15.650;2023-03-23T07:27:13;6.07;;;3.90;;
59193;SDS011;44967;48.598;15.650;2023-03-23T07:29:39;16.95;;;6.05;;
59193;SDS011;44967;48.598;15.650;2023-03-23T07:32:05;11.43;;;4.97;;
59193;SDS011;44967;48.598;15.650;2023-03-23T07:34:32;7.38;;;4.22;;
59193;SDS011;44967;48.598;15.650;2023-03-23T07:36:58;8.95;;;4.38;;
59193;SDS011;44967;48.598;15.650;2023-03-23T07:39:24;8.75;;;4.65;;
59193;SDS011;44967;48.598;15.650;2023-03-23T07:41:51;15.70;;;5.57;;
59193;SDS011;44967;48.598;15.650;2023-03-23T07:44:16;22.17;;;7.15;;
59193;SDS011;44967;48.598;15.650;2023-03-23T07:46:42;10.32;;;5.68;;
59193;SDS011;44967;48.598;15.650;2023-03-23T07:49:08;9.32;;;6.28;;
59193;SDS011;44967;48.598;15.650;2023-03-23T07:51:35;7.65;;;5.57;;
59193;SDS011;44967;48.598;15.650;2023-03-23T07:54:03;6.45;;;4.70;;
59193;SDS011;44967;48.598;15.650;2023-03-23T07:56:30;6.85;;;4.57;;
59193;SDS011;44967;48.598;15.650;2023-03-23T07:58:56;10.80;;;4.88;;
59193;SDS011;44967;48.598;15.650;2023-03-23T08:01:22;8.63;;;4.45;;
59193;SDS011;44967;48.598;15.650;2023-03-23T08:03:49;6.03;;;4.20;;
59193;SDS011;44967;48.598;15.650;2023-03-23T08:06:15;6.20;;;4.10;;
59193;SDS011;44967;48.598;15.650;2023-03-23T08:08:41;29.15;;;6.53;;
59193;SDS011;44967;48.598;15.650;2023-03-23T08:11:07;5.38;;;3.90;;
59193;SDS011;44967;48.598;15.650;2023-03-23T08:13:33;6.60;;;4.35;;
59193;SDS011;44967;48.598;15.650;2023-03-23T08:15:59;7.82;;;4.60;;
59193;SDS011;44967;48.598;15.650;2023-03-23T08:18:29;7.40;;;4.20;;
59193;SDS011;44967;48.598;15.650;2023-03-23T08:20:55;5.50;;;3.95;;
59193;SDS011;44967;48.598;15.650;2023-03-23T08:23:21;9.43;;;4.55;;
59193;SDS011;44967;48.598;15.650;2023-03-23T08:25:47;7.45;;;4.32;;
59193;SDS011;44967;48.598;15.650;2023-03-23T08:28:14;6.07;;;3.95;;
59193;SDS011;44967;48.598;15.650;2023-03-23T08:30:40;7.32;;;4.18;;
59193;SDS011;44967;48.598;15.650;2023-03-23T08:33:06;6.57;;;4.30;;
59193;SDS011;44967;48.598;15.650;2023-03-23T08:35:34;7.70;;;4.35;;
59193;SDS011;44967;48.598;15.650;2023-03-23T08:37:59;6.03;;;3.85;;
59193;SDS011;44967;48.598;15.650;2023-03-23T08:40:25;10.30;;;4.60;;
59193;SDS011;44967;48.598;15.650;2023-03-23T08:42:52;6.88;;;4.35;;
59193;SDS011;44967;48.598;15.650;2023-03-23T08:45:19;7.30;;;4.07;;
59193;SDS011;44967;48.598;15.650;2023-03-23T08:47:47;7.28;;;4.32;;
59193;SDS011;44967;48.598;15.650;2023-03-23T08:50:19;6.38;;;3.72;;
59193;SDS011;44967;48.598;15.650;2023-03-23T08:52:49;8.98;;;3.90;;
59193;SDS011;44967;48.598;15.650;2023-03-23T08:55:15;6.43;;;4.45;;
59193;SDS011;44967;48.598;15.650;2023-03-23T08:57:42;3.83;;;3.42;;
59193;SDS011;44967;48.598;15.650;2023-03-23T09:00:11;7.03;;;3.75;;
59193;SDS011;44967;48.598;15.650;2023-03-23T09:02:42;13.07;;;4.32;;
59193;SDS011;44967;48.598;15.650;2023-03-23T09:05:17;8.10;;;3.75;;
59193;SDS011;44967;48.598;15.650;2023-03-23T09:07:46;5.82;;;3.47;;
59193;SDS011;44967;48.598;15.650;2023-03-23T09:10:13;5.47;;;4.25;;
59193;SDS011;44967;48.598;15.650;2023-03-23T09:12:40;5.35;;;3.40;;
59193;SDS011;44967;48.598;15.650;2023-03-23T09:15:07;7.13;;;3.30;;
59193;SDS011;44967;48.598;15.650;2023-03-23T09:17:35;4.68;;;3.55;;
59193;SDS011;44967;48.598;15.650;2023-03-23T09:20:04;6.45;;;3.75;;
59193;SDS011;44967;48.598;15.650;2023-03-23T09:22:42;6.30;;;3.88;;
59193;SDS011;44967;48.598;15.650;2023-03-23T09:25:11;6.70;;;3.42;;
59193;SDS011;44967;48.598;15.650;2023-03-23T09:27:39;4.07;;;3.55;;
59193;SDS011;44967;48.598;15.650;2023-03-23T09:30:07;5.72;;;3.40;;
59193;SDS011;44967;48.598;15.650;2023-03-23T09:32:36;5.28;;;3.72;;
59193;SDS011;44967;48.598;15.650;2023-03-23T09:35:04;5.90;;;3.67;;
59193;SDS011;44967;48.598;15.650;2023-03-23T09:37:33;9.40;;;3.72;;
59193;SDS011;44967;48.598;15.650;2023-03-23T09:40:04;13.35;;;4.72;;
59193;SDS011;44967;48.598;15.650;2023-03-23T09:42:47;9.70;;;4.05;;
59193;SDS011;44967;48.598;15.650;2023-03-23T09:45:39;9.10;;;3.80;;
59193;SDS011;44967;48.598;15.650;2023-03-23T09:48:29;5.70;;;3.90;;
59193;SDS011;44967;48.598;15.650;2023-03-23T09:51:08;8.30;;;3.85;;
59193;SDS011;44967;48.598;15.650;2023-03-23T09:53:43;5.45;;;3.05;;
59193;SDS011;44967;48.598;15.650;2023-03-23T09:56:14;6.80;;;3.42;;
59193;SDS011;44967;48.598;15.650;2023-03-23T09:58:51;6.53;;;3.88;;
59193;SDS011;44967;48.598;15.650;2023-03-23T10:07:15;10.50;;;3.30;;
59193;SDS011;44967;48.598;15.650;2023-03-23T10:09:44;4.75;;;3.08;;
59193;SDS011;44967;48.598;15.650;2023-03-23T10:12:32;7.78;;;3.00;;
59193;SDS011;44967;48.598;15.650;2023-03-23T10:15:21;6.60;;;3.08;;
59193;SDS011;44967;48.598;15.650;2023-03-23T10:20:35;6.47;;;2.97;;
59193;SDS011;44967;48.598;15.650;2023-03-23T10:23:05;11.63;;;3.38;;
59193;SDS011;44967;48.598;15.650;2023-03-23T10:26:16;6.05;;;2.72;;
59193;SDS011;44967;48.598;15.650;2023-03-23T10:28:45;6.68;;;2.78;;
59193;SDS011;44967;48.598;15.650;2023-03-23T10:31:35;2.83;;;2.45;;
59193;SDS011;44967;48.598;15.650;2023-03-23T10:40:02;5.80;;;2.40;;
59193;SDS011;44967;48.598;15.650;2023-03-23T10:42:34;4.07;;;2.38;;
59193;SDS011;44967;48.598;15.650;2023-03-23T10:45:35;4.13;;;2.67;;
59193;SDS011;44967;48.598;15.650;2023-03-23T10:50:34;4.22;;;2.65;;
59193;SDS011;44967;48.598;15.650;2023-03-23T10:53:03;4.35;;;2.58;;
59193;SDS011;44967;48.598;15.650;2023-03-23T10:55:40;3.80;;;2.40;;
59193;SDS011;44967;48.598;15.650;2023-03-23T10:58:09;4.70;;;2.80;;
59193;SDS011;44967;48.598;15.650;2023-03-23T11:00:43;5.28;;;2.72;;
59193;SDS011;44967;48.598;15.650;2023-03-23T11:05:42;3.53;;;2.60;;
59193;SDS011;44967;48.598;15.650;2023-03-23T11:08:21;3.58;;;2.60;;
59193;SDS011;44967;48.598;15.650;2023-03-23T11:10:55;4.30;;;2.35;;
59193;SDS011;44967;48.598;15.650;2023-03-23T11:13:22;5.05;;;2.83;;
59193;SDS011;44967;48.598;15.650;2023-03-23T11:15:53;5.00;;;2.78;;
59193;SDS011;44967;48.598;15.650;2023-03-23T11:18:24;7.18;;;3.47;;
59193;SDS011;44967;48.598;15.650;2023-03-23T11:20:54;5.05;;;2.85;;
59193;SDS011;44967;48.598;15.650;2023-03-23T11:23:28;9.80;;;3.92;;
59193;SDS011;44967;48.598;15.650;2023-03-23T11:26:24;6.82;;;3.70;;
59193;SDS011;44967;48.598;15.650;2023-03-23T11:28:58;6.57;;;3.28;;
59193;SDS011;44967;48.598;15.650;2023-03-23T11:31:33;6.90;;;3.42;;
59193;SDS011;44967;48.598;15.650;2023-03-23T11:36:36;8.45;;;3.45;;
59193;SDS011;44967;48.598;15.650;2023-03-23T11:39:26;5.78;;;3.80;;
59193;SDS011;44967;48.598;15.650;2023-03-23T11:42:12;7.15;;;3.80;;
59193;SDS011;44967;48.598;15.650;2023-03-23T11:44:43;4.78;;;3.28;;
59193;SDS011;44967;48.598;15.650;2023-03-23T11:47:30;7.25;;;3.50;;
59193;SDS011;44967;48.598;15.650;2023-03-23T11:52:41;10.13;;;4.03;;
59193;SDS011;44967;48.598;15.650;2023-03-23T11:55:20;8.60;;;3.88;;
59193;SDS011;44967;48.598;15.650;2023-03-23T11:57:51;8.68;;;4.53;;
59193;SDS011;44967;48.598;15.650;2023-03-23T12:00:20;6.43;;;4.10;;
59193;SDS011;44967;48.598;15.650;2023-03-23T12:11:02;6.72;;;3.42;;
59193;SDS011;44967;48.598;15.650;2023-03-23T12:25:20;7.10;;;3.03;;
59193;SDS011;44967;48.598;15.650;2023-03-23T12:36:36;2.65;;;2.20;;
59193;SDS011;44967;48.598;15.650;2023-03-23T12:39:43;4.40;;;2.20;;
59193;SDS011;44967;48.598;15.650;2023-03-23T12:42:16;4.18;;;2.30;;
59193;SDS011;44967;48.598;15.650;2023-03-23T12:45:07;2.35;;;1.48;;
59193;SDS011;44967;48.598;15.650;2023-03-23T12:47:47;1.23;;;1.13;;
59193;SDS011;44967;48.598;15.650;2023-03-23T12:55:47;0.80;;;0.80;;
59193;SDS011;44967;48.598;15.650;2023-03-23T12:58:17;1.00;;;0.80;;
59193;SDS011;44967;48.598;15.650;2023-03-23T13:00:56;1.40;;;0.70;;
59193;SDS011;44967;48.598;15.650;2023-03-23T13:03:45;1.58;;;0.75;;
59193;SDS011;44967;48.598;15.650;2023-03-23T13:06:15;3.05;;;0.95;;
59193;SDS011;44967;48.598;15.650;2023-03-23T13:08:50;1.88;;;0.90;;
59193;SDS011;44967;48.598;15.650;2023-03-23T13:11:44;10.75;;;2.25;;
59193;SDS011;44967;48.598;15.650;2023-03-23T13:14:18;1.70;;;0.70;;
59193;SDS011;44967;48.598;15.650;2023-03-23T13:17:01;0.60;;;0.55;;
59193;SDS011;44967;48.598;15.650;2023-03-23T13:20:05;3.92;;;0.90;;
59193;SDS011;44967;48.598;15.650;2023-03-23T13:22:52;0.73;;;0.57;;
59193;SDS011;44967;48.598;15.650;2023-03-23T13:28:00;3.38;;;1.10;;
59193;SDS011;44967;48.598;15.650;2023-03-23T13:30:27;2.47;;;0.60;;
59193;SDS011;44967;48.598;15.650;2023-03-23T13:33:04;0.50;;;0.50;;
59193;SDS011;44967;48.598;15.650;2023-03-23T13:35:35;3.72;;;0.80;;
59193;SDS011;44967;48.598;15.650;2023-03-23T13:38:11;0.93;;;0.70;;
59193;SDS011;44967;48.598;15.650;2023-03-23T13:40:44;0.65;;;0.65;;
59193;SDS011;44967;48.598;15.650;2023-03-23T13:43:10;4.72;;;1.20;;
59193;SDS011;44967;48.598;15.650;2023-03-23T13:45:44;2.80;;;0.85;;
59193;SDS011;44967;48.598;15.650;2023-03-23T13:51:22;0.68;;;0.68;;
59193;SDS011;44967;48.598;15.650;2023-03-23T13:53:49;1.00;;;0.73;;
59193;SDS011;44967;48.598;15.650;2023-03-23T13:58:49;1.17;;;0.70;;
59193;SDS011;44967;48.598;15.650;2023-03-23T14:01:32;2.03;;;0.68;;
59193;SDS011;44967;48.598;15.650;2023-03-23T14:04:01;1.15;;;0.80;;
59193;SDS011;44967;48.598;15.650;2023-03-23T14:06:33;1.92;;;0.73;;
59193;SDS011;44967;48.598;15.650;2023-03-23T14:09:04;1.42;;;0.55;;
59193;SDS011;44967;48.598;15.650;2023-03-23T14:12:01;2.30;;;0.93;;
59193;SDS011;44967;48.598;15.650;2023-03-23T14:14:39;2.80;;;1.20;;
59193;SDS011;44967;48.598;15.650;2023-03-23T14:17:15;1.47;;;0.80;;
59193;SDS011;44967;48.598;15.650;2023-03-23T14:22:20;2.75;;;1.13;;
59193;SDS011;44967;48.598;15.650;2023-03-23T14:24:48;0.70;;;0.70;;
59193;SDS011;44967;48.598;15.650;2023-03-23T14:27:17;1.95;;;1.00;;
59193;SDS011;44967;48.598;15.650;2023-03-23T14:29:45;1.92;;;0.82;;
59193;SDS011;44967;48.598;15.650;2023-03-23T14:32:23;1.20;;;0.98;;
59193;SDS011;44967;48.598;15.650;2023-03-23T14:34:51;0.80;;;0.80;;
59193;SDS011;44967;48.598;15.650;2023-03-23T14:37:18;1.35;;;1.00;;
59193;SDS011;44967;48.598;15.650;2023-03-23T14:39:47;1.23;;;1.10;;
59193;SDS011;44967;48.598;15.650;2023-03-23T14:42:16;2.70;;;1.05;;
59193;SDS011;44967;48.598;15.650;2023-03-23T14:44:46;2.35;;;1.00;;
59193;SDS011;44967;48.598;15.650;2023-03-23T14:47:21;1.40;;;1.08;;
59193;SDS011;44967;48.598;15.650;2023-03-23T14:49:54;3.28;;;1.33;;
59193;SDS011;44967;48.598;15.650;2023-03-23T14:52:22;0.98;;;0.80;;
59193;SDS011;44967;48.598;15.650;2023-03-23T14:54:53;1.40;;;1.20;;
59193;SDS011;44967;48.598;15.650;2023-03-23T14:57:25;2.75;;;1.20;;
59193;SDS011;44967;48.598;15.650;2023-03-23T14:59:53;1.20;;;1.10;;
59193;SDS011;44967;48.598;15.650;2023-03-23T15:02:23;1.70;;;1.10;;
59193;SDS011;44967;48.598;15.650;2023-03-23T15:04:53;1.73;;;1.05;;
59193;SDS011;44967;48.598;15.650;2023-03-23T15:07:24;2.58;;;1.13;;
59193;SDS011;44967;48.598;15.650;2023-03-23T15:09:54;1.75;;;0.98;;
59193;SDS011;44967;48.598;15.650;2023-03-23T15:12:24;1.73;;;1.17;;
59193;SDS011;44967;48.598;15.650;2023-03-23T15:14:53;1.63;;;1.45;;
59193;SDS011;44967;48.598;15.650;2023-03-23T15:17:26;2.88;;;1.20;;
59193;SDS011;44967;48.598;15.650;2023-03-23T15:19:54;2.55;;;1.55;;
59193;SDS011;44967;48.598;15.650;2023-03-23T15:22:27;2.85;;;1.73;;
59193;SDS011;44967;48.598;15.650;2023-03-23T15:27:42;2.35;;;1.55;;
59193;SDS011;44967;48.598;15.650;2023-03-23T15:30:26;3.67;;;1.55;;
59193;SDS011;44967;48.598;15.650;2023-03-23T15:33:00;2.25;;;1.40;;
59193;SDS011;44967;48.598;15.650;2023-03-23T15:35:35;2.60;;;1.30;;
59193;SDS011;44967;48.598;15.650;2023-03-23T15:38:04;5.80;;;2.10;;
59193;SDS011;44967;48.598;15.650;2023-03-23T15:40:34;2.22;;;1.33;;
59193;SDS011;44967;48.598;15.650;2023-03-23T15:43:14;1.60;;;1.33;;
59193;SDS011;44967;48.598;15.650;2023-03-23T15:46:46;3.22;;;1.27;;
59193;SDS011;44967;48.598;15.650;2023-03-23T15:51:11;3.95;;;1.52;;
59193;SDS011;44967;48.598;15.650;2023-03-23T15:53:38;3.55;;;1.58;;
59193;SDS011;44967;48.598;15.650;2023-03-23T15:56:05;2.80;;;1.30;;
59193;SDS011;44967;48.598;15.650;2023-03-23T15:58:33;2.50;;;1.27;;
59193;SDS011;44967;48.598;15.650;2023-03-23T16:01:02;3.15;;;1.63;;
59193;SDS011;44967;48.598;15.650;2023-03-23T16:03:40;1.83;;;1.23;;
59193;SDS011;44967;48.598;15.650;2023-03-23T16:06:12;2.08;;;1.33;;
59193;SDS011;44967;48.598;15.650;2023-03-23T16:08:41;1.50;;;1.15;;
59193;SDS011;44967;48.598;15.650;2023-03-23T16:11:10;2.10;;;1.10;;
59193;SDS011;44967;48.598;15.650;2023-03-23T16:13:37;2.75;;;0.98;;
59193;SDS011;44967;48.598;15.650;2023-03-23T16:16:03;3.65;;;1.20;;
59193;SDS011;44967;48.598;15.650;2023-03-23T16:18:30;3.13;;;1.38;;
59193;SDS011;44967;48.598;15.650;2023-03-23T16:20:56;1.60;;;0.95;;
59193;SDS011;44967;48.598;15.650;2023-03-23T16:23:22;1.48;;;1.20;;
59193;SDS011;44967;48.598;15.650;2023-03-23T16:25:48;10.63;;;2.13;;
59193;SDS011;44967;48.598;15.650;2023-03-23T16:28:14;3.40;;;1.58;;
59193;SDS011;44967;48.598;15.650;2023-03-23T16:30:40;1.63;;;1.38;;
59193;SDS011;44967;48.598;15.650;2023-03-23T16:33:08;2.50;;;1.60;;
59193;SDS011;44967;48.598;15.650;2023-03-23T16:35:34;2.40;;;1.35;;
59193;SDS011;44967;48.598;15.650;2023-03-23T16:38:00;1.90;;;1.30;;
59193;SDS011;44967;48.598;15.650;2023-03-23T16:40:27;2.58;;;1.27;;